Iron Lady — WTK5059 — position and weather

sailwx.info

Track history (hours):
 
Tides and Currents Weather Stations Pressure Air Temp Water Temp Dewpoint Dewpoint Depression Visibility Wind Speed Wind Dir Waves Ship Positions

Iron Lady

Owner: IRON LADY INC, SOUTH BEND, WA. More information available from US FCC via Universal Licensing System and Coast Guard Vessel Documentation Center.

Last reported at 2018-May-23 09:30 UTC. Time now 2018-May-23 09:34 UTC.
Position N 46°10' W 123°55'.

Type: Fishing. MMSI: 367037240.

Date/timePositionNaut miles runAvg speedWind from/ knotsBaromVisibWave heightAir tempDewpointWater temp
2018-May-23 09:30N 46°10' W 123°55'0 0.0
2018-May-23 09:00N 46°10' W 123°55'0 0.0
2018-May-23 08:30N 46°10' W 123°55'0 0.0
2018-May-23 08:00N 46°10' W 123°55'0 0.0
2018-May-23 07:30N 46°10' W 123°55'0 0.0
2018-May-23 06:59N 46°10' W 123°55'0 0.0
2018-May-23 06:30N 46°10' W 123°55'0 0.0
2018-May-23 06:00N 46°10' W 123°55'0 0.0
2018-May-23 05:21N 46°10' W 123°55'0 0.0
2018-May-23 04:59N 46°10' W 123°55'0 0.0
2018-May-23 04:29N 46°10' W 123°55'0 0.0
2018-May-23 04:00N 46°10' W 123°55'0 0.0
2018-May-23 03:30N 46°10' W 123°55'0 0.0
2018-May-23 02:54N 46°10' W 123°55'0 0.0
2018-May-23 02:30N 46°10' W 123°55'4 7.1
2018-May-23 02:00N 46°13' W 123°58'4 8.6
2018-May-23 01:30N 46°15' W 124°03'4 8.1
2018-May-23 01:00N 46°18' W 124°07'5 9.0
2018-May-23 00:30N 46°22' W 124°11'6 9.0
2018-May-22 23:47N 46°28' W 124°14'2 8.9
2018-May-22 23:30N 46°30' W 124°15'5 8.9
2018-May-22 23:00N 46°34' W 124°18'4 9.1
2018-May-22 22:30N 46°38' W 124°20'5 9.2
2018-May-22 22:00N 46°43' W 124°22'4 9.0
2018-May-22 21:30N 46°47' W 124°25'5 9.1
2018-May-22 21:00N 46°51' W 124°27'5 9.1
2018-May-22 20:29N 46°56' W 124°30'4 8.8
2018-May-22 20:00N 46°60' W 124°32'19 1.0
2018-May-22 00:26N 46°51' W 124°56'1 1.4
2018-May-21 23:24N 46°49' W 124°56'1 2.4
2018-May-21 22:51N 46°48' W 124°55'1 2.4
2018-May-21 22:30N 46°47' W 124°54'1 2.4
2018-May-21 22:00N 46°46' W 124°53'1 2.3
2018-May-21 21:30N 46°45' W 124°53'1 2.3
2018-May-21 21:00N 46°44' W 124°52'1 2.4
2018-May-21 20:30N 46°43' W 124°51'1 2.3
2018-May-21 19:57N 46°42' W 124°50'1 2.3
2018-May-21 19:30N 46°41' W 124°50'1 2.3
2018-May-21 19:00N 46°40' W 124°49'1 2.3
2018-May-21 18:30N 46°39' W 124°49'1 2.4
2018-May-21 17:57N 46°38' W 124°47'2 2.5
2018-May-21 17:06N 46°38' W 124°44'0 1.8
2018-May-21 17:00N 46°38' W 124°44'1 1.1
2018-May-21 16:29N 46°38' W 124°45'1 2.2
2018-May-21 16:00N 46°38' W 124°47'2 2.2
2018-May-21 15:14N 46°39' W 124°49'1 2.3
2018-May-21 15:00N 46°40' W 124°49'1 2.3
2018-May-21 14:30N 46°41' W 124°49'1 2.3
2018-May-21 14:00N 46°42' W 124°50'1 2.2
2018-May-21 13:30N 46°43' W 124°51'1 2.3
2018-May-21 12:58N 46°44' W 124°52'1 2.2
2018-May-21 12:23N 46°45' W 124°52'1 2.3
2018-May-21 11:47N 46°46' W 124°53'1 2.2
2018-May-21 11:25N 46°47' W 124°53'1 2.3
2018-May-21 10:59N 46°48' W 124°54'1 0.2
2018-May-21 08:12N 46°48' W 124°53'0 2.4
2018-May-21 08:00N 46°48' W 124°53'2 2.3
2018-May-21 07:19N 46°46' W 124°52'1 2.3
2018-May-21 06:59N 46°46' W 124°52'1 2.3
2018-May-21 06:30N 46°45' W 124°51'1 2.2
2018-May-21 06:00N 46°44' W 124°50'1 2.2
2018-May-21 05:30N 46°43' W 124°50'1 2.2
2018-May-21 04:59N 46°42' W 124°49'1 2.2
2018-May-21 04:30N 46°41' W 124°48'1 2.3
2018-May-21 03:57N 46°40' W 124°48'3 2.4
2018-May-21 02:47N 46°38' W 124°44'0 1.1
2018-May-21 02:30N 46°38' W 124°44'1 1.7
2018-May-21 01:42N 46°38' W 124°46'0 2.3
2018-May-21 01:29N 46°39' W 124°47'1 2.5
2018-May-21 01:00N 46°39' W 124°48'1 2.4
2018-May-21 00:30N 46°40' W 124°49'1 2.2
2018-May-21 00:00N 46°41' W 124°49'1 2.3
2018-May-20 23:30N 46°42' W 124°50'2 2.4
2018-May-20 22:52N 46°44' W 124°51'1 2.4
2018-May-20 22:30N 46°45' W 124°51'1 2.4
2018-May-20 21:59N 46°46' W 124°52'1 2.4
2018-May-20 21:30N 46°47' W 124°53'1 2.4
2018-May-20 21:00N 46°48' W 124°54'1 2.3
2018-May-20 20:27N 46°49' W 124°55'2 1.1
2018-May-20 18:44N 46°50' W 124°57'1 2.3
2018-May-20 18:30N 46°49' W 124°57'2 2.3
2018-May-20 17:27N 46°47' W 124°55'1 2.2
2018-May-20 16:50N 46°46' W 124°54'1 2.2
2018-May-20 16:11N 46°45' W 124°53'0 2.1
2018-May-20 16:00N 46°44' W 124°53'1 2.2
2018-May-20 15:29N 46°43' W 124°52'2 2.2
2018-May-20 14:39N 46°42' W 124°51'0 2.1
2018-May-20 14:30N 46°41' W 124°51'1 2.2
2018-May-20 14:00N 46°40' W 124°51'1 2.2
2018-May-20 13:30N 46°39' W 124°51'1 2.2
2018-May-20 13:00N 46°38' W 124°51'1 2.2
2018-May-20 12:30N 46°37' W 124°50'1 2.2
2018-May-20 12:00N 46°36' W 124°49'3 5.1
2018-May-20 11:30N 46°34' W 124°47'3 6.9
2018-May-20 11:00N 46°32' W 124°43'2 4.8
2018-May-20 10:30N 46°30' W 124°41'1 1.0
2018-May-20 10:00N 46°31' W 124°40'2 0.6
2018-May-20 06:59N 46°32' W 124°38'1 2.4
2018-May-20 06:30N 46°31' W 124°40'1 2.8
2018-May-20 06:00N 46°30' W 124°40'7 8.5
2018-May-20 05:11N 46°26' W 124°32'1 7.7
2018-May-20 05:00N 46°25' W 124°30'4 7.4
2018-May-20 04:30N 46°24' W 124°25'5 6.6
2018-May-20 03:48N 46°21' W 124°20'2 6.2
2018-May-20 03:31N 46°20' W 124°17'3 6.4
2018-May-20 03:00N 46°18' W 124°13'3 7.0
2018-May-20 02:31N 46°17' W 124°09'4 8.9
2018-May-20 02:00N 46°15' W 124°03'510.2
2018-May-20 01:31N 46°13' W 123°57'3 5.8
2018-May-20 01:01N 46°10' W 123°55'0 0.0
2018-May-20 00:30N 46°10' W 123°55'0 0.0
2018-May-20 00:00N 46°10' W 123°55'0 0.0
2018-May-19 23:30N 46°10' W 123°55'0 0.0
2018-May-19 23:00N 46°10' W 123°55'0 0.0
2018-May-19 22:31N 46°10' W 123°55'0 0.0
2018-May-19 22:00N 46°10' W 123°55'0 0.0
2018-May-19 21:30N 46°10' W 123°55'0 0.0
2018-May-19 21:00N 46°10' W 123°55'0 0.0
2018-May-19 20:30N 46°10' W 123°55'0 0.0
2018-May-19 20:01N 46°10' W 123°55'0 0.0
2018-May-19 19:30N 46°10' W 123°55'0 0.0
2018-May-19 18:50N 46°10' W 123°55'0 0.2
2018-May-19 18:30N 46°10' W 123°55'0 0.0
2018-May-19 18:00N 46°10' W 123°55'0 0.2
2018-May-19 17:30N 46°10' W 123°55'0 0.0
2018-May-19 17:00N 46°10' W 123°55'0 0.0
2018-May-19 16:30N 46°10' W 123°55'0 0.0
2018-May-19 16:00N 46°10' W 123°55'0 0.0
2018-May-19 15:24N 46°10' W 123°55'0 0.0
2018-May-19 15:00N 46°10' W 123°55'0 0.0
2018-May-19 14:30N 46°10' W 123°55'0 0.0
2018-May-19 14:01N 46°10' W 123°55'0 0.0
2018-May-19 13:30N 46°10' W 123°55'0 0.0
2018-May-19 12:59N 46°10' W 123°55'0 0.0
2018-May-19 12:30N 46°10' W 123°55'0 0.0
2018-May-19 12:00N 46°10' W 123°55'0 0.0
2018-May-19 11:31N 46°10' W 123°55'0 0.0
2018-May-19 11:00N 46°10' W 123°55'0 0.0
2018-May-19 10:30N 46°10' W 123°55'0 0.0
2018-May-19 10:00N 46°10' W 123°55'0 0.0
2018-May-19 09:29N 46°10' W 123°55'0 0.0
2018-May-19 09:00N 46°10' W 123°55'0 0.0
2018-May-19 08:30N 46°10' W 123°55'0 0.0
2018-May-19 08:00N 46°10' W 123°55'0 0.0
2018-May-19 07:30N 46°10' W 123°55'0 0.0
2018-May-19 06:49N 46°10' W 123°55'0 0.0
2018-May-19 06:30N 46°10' W 123°55'0 0.0
2018-May-19 06:00N 46°10' W 123°55'0 0.0
2018-May-19 05:30N 46°10' W 123°55'0 0.0
2018-May-19 05:00N 46°10' W 123°55'0 0.0
2018-May-19 04:30N 46°10' W 123°55'0 0.0
2018-May-19 03:44N 46°10' W 123°55'0 0.0
2018-May-19 03:30N 46°10' W 123°55'0 0.0
2018-May-19 03:00N 46°10' W 123°55'0 0.0
2018-May-19 02:31N 46°10' W 123°55'0 0.0
2018-May-19 01:51N 46°10' W 123°55'0 0.0
2018-May-19 01:12N 46°10' W 123°55'0 0.0
2018-May-19 01:00N 46°10' W 123°55'0 0.0
2018-May-17 20:13N 46°10' W 123°55'0 0.0
2018-May-17 20:00N 46°10' W 123°55'0 0.0
2018-May-17 19:30N 46°10' W 123°55'0 0.0
2018-May-17 19:00N 46°10' W 123°55'0 0.0
2018-May-17 18:30N 46°10' W 123°55'0 0.0
2018-May-17 18:00N 46°10' W 123°55'0 0.0
2018-May-17 17:30N 46°10' W 123°55'0 0.0
2018-May-17 17:00N 46°10' W 123°55'0 0.0
2018-May-17 16:30N 46°10' W 123°55'0 0.0
2018-May-17 16:01N 46°10' W 123°55'0 0.0
2018-May-17 15:28N 46°10' W 123°55'0 0.0
2018-May-17 15:00N 46°10' W 123°55'0 0.0
2018-May-17 14:30N 46°10' W 123°55'0 0.0
2018-May-17 14:00N 46°10' W 123°55'0 0.0
2018-May-17 13:28N 46°10' W 123°55'0 0.0
2018-May-17 13:00N 46°10' W 123°55'0 0.0
2018-May-17 12:30N 46°10' W 123°55'0 0.0
2018-May-17 12:00N 46°10' W 123°55'0 0.0
2018-May-17 11:29N 46°10' W 123°55'0 0.0
2018-May-17 11:00N 46°10' W 123°55'0 0.0
2018-May-17 10:30N 46°10' W 123°55'0 0.0
2018-May-17 10:00N 46°10' W 123°55'0 0.0
2018-May-17 09:30N 46°10' W 123°55'0 0.0
2018-May-17 09:00N 46°10' W 123°55'0 0.0
2018-May-17 08:30N 46°10' W 123°55'0 0.0
2018-May-17 08:00N 46°10' W 123°55'0 0.0
2018-May-17 07:22N 46°10' W 123°55'0 0.0
2018-May-17 07:00N 46°10' W 123°55'0 0.0
2018-May-17 06:30N 46°10' W 123°55'0 0.0
2018-May-17 06:00N 46°10' W 123°55'0 0.0
2018-May-17 05:21N 46°10' W 123°55'0 0.0
2018-May-17 05:01N 46°10' W 123°55'0 0.0
2018-May-17 04:31N 46°10' W 123°55'0 0.0
2018-May-17 04:01N 46°10' W 123°55'0 0.0
2018-May-17 03:30N 46°10' W 123°55'0 0.0
2018-May-17 03:01N 46°10' W 123°55'0 0.0
2018-May-17 02:16N 46°10' W 123°55'0 0.0
2018-May-17 02:01N 46°10' W 123°55'0 0.0
2018-May-17 01:30N 46°10' W 123°55'0 0.0
2018-May-17 01:01N 46°10' W 123°55'0 0.0
2018-May-16 23:57N 46°10' W 123°55'0 0.0
2018-May-16 23:31N 46°10' W 123°55'0 0.0
2018-May-16 23:01N 46°10' W 123°55'0 0.0
2018-May-16 22:31N 46°10' W 123°55'0 0.0
2018-May-16 22:00N 46°10' W 123°55'0 0.0
2018-May-16 21:30N 46°10' W 123°55'0 0.0
2018-May-16 21:01N 46°10' W 123°55'0 0.0
2018-May-16 20:31N 46°10' W 123°55'0 0.0
2018-May-16 20:00N 46°10' W 123°55'0 0.0
2018-May-16 19:30N 46°10' W 123°55'0 0.2
2018-May-16 19:01N 46°10' W 123°55'0 0.0
2018-May-16 18:31N 46°10' W 123°55'0 0.0
2018-May-16 18:01N 46°10' W 123°55'0 0.0
2018-May-16 17:30N 46°10' W 123°55'0 0.0
2018-May-16 17:01N 46°10' W 123°55'0 0.0
2018-May-16 16:31N 46°10' W 123°55'0 0.0
2018-May-16 16:01N 46°10' W 123°55'0 0.0
2018-May-16 15:31N 46°10' W 123°55'0 0.0
2018-May-16 15:01N 46°10' W 123°55'0 0.0
2018-May-16 14:31N 46°10' W 123°55'0 0.0
2018-May-16 14:01N 46°10' W 123°55'0 0.0
2018-May-16 13:30N 46°10' W 123°55'0 0.0
2018-May-16 13:01N 46°10' W 123°55'0 0.2
2018-May-16 12:31N 46°10' W 123°55'0 0.0
2018-May-16 12:01N 46°10' W 123°55'0 0.0
2018-May-16 11:31N 46°10' W 123°55'0 0.0
2018-May-16 11:01N 46°10' W 123°55'0 0.0
2018-May-16 10:31N 46°10' W 123°55'0 0.0
2018-May-16 10:01N 46°10' W 123°55'0 0.0
2018-May-16 09:31N 46°10' W 123°55'0 0.0
2018-May-16 09:01N 46°10' W 123°55'0 0.0
2018-May-16 08:31N 46°10' W 123°55'0 0.0
2018-May-16 08:01N 46°10' W 123°55'0 0.0
2018-May-16 07:31N 46°10' W 123°55'0 0.0
2018-May-16 07:01N 46°10' W 123°55'0 0.0
2018-May-16 06:31N 46°10' W 123°55'0 0.0
2018-May-16 06:01N 46°10' W 123°55'0 0.0
2018-May-16 05:29N 46°10' W 123°55'0 0.0
2018-May-16 05:01N 46°10' W 123°55'0 0.0
2018-May-16 04:31N 46°10' W 123°55'1 1.2
2018-May-16 04:00N 46°11' W 123°55'3 6.6
2018-May-16 03:30N 46°13' W 123°58'3 5.8
2018-May-16 03:01N 46°15' W 124°01'2 4.5
2018-May-16 02:31N 46°15' W 124°04'2 3.9
2018-May-16 02:00N 46°15' W 124°07'2 4.9
2018-May-16 01:30N 46°17' W 124°10'4 7.6
2018-May-16 01:01N 46°19' W 124°14'3 6.8
2018-May-16 00:31N 46°22' W 124°17'4 7.9
2018-May-16 00:01N 46°24' W 124°22'6 8.3
2018-May-15 23:17N 46°28' W 124°28'2 8.0
2018-May-15 23:01N 46°29' W 124°31'4 8.2
2018-May-15 22:31N 46°32' W 124°35'4 7.8
2018-May-15 21:56N 46°35' W 124°40'4 6.2
2018-May-15 21:16N 46°38' W 124°45'0 0.2
2018-May-15 21:00N 46°38' W 124°45'1 2.3
2018-May-15 20:31N 46°38' W 124°46'1 2.2
2018-May-15 20:00N 46°38' W 124°48'1 2.0
2018-May-15 19:29N 46°38' W 124°49'1 1.9
2018-May-15 18:58N 46°39' W 124°50'1 2.1
2018-May-15 18:28N 46°40' W 124°50'1 2.2
2018-May-15 17:48N 46°42' W 124°51'1 2.3
2018-May-15 17:30N 46°42' W 124°51'1 2.2
2018-May-15 17:00N 46°43' W 124°52'2 2.2
2018-May-15 16:12N 46°45' W 124°53'1 2.3
2018-May-15 15:59N 46°45' W 124°53'1 2.2
2018-May-15 15:30N 46°46' W 124°54'1 2.3
2018-May-15 14:59N 46°48' W 124°54'3 2.6
2018-May-15 13:47N 46°50' W 124°57'0 1.3
2018-May-15 13:27N 46°51' W 124°56'2 1.4
2018-May-15 12:17N 46°49' W 124°56'1 2.1
2018-May-15 12:00N 46°49' W 124°55'1 2.2
2018-May-15 11:28N 46°48' W 124°54'1 2.2
2018-May-15 11:00N 46°47' W 124°53'1 2.2
2018-May-15 10:30N 46°46' W 124°53'1 2.2
2018-May-15 10:00N 46°45' W 124°53'1 2.2
2018-May-15 09:30N 46°44' W 124°52'1 2.3
2018-May-15 09:00N 46°43' W 124°51'1 2.3
2018-May-15 08:30N 46°42' W 124°50'1 2.3
2018-May-15 08:00N 46°40' W 124°50'1 2.6
2018-May-15 07:30N 46°39' W 124°49'2 2.3
2018-May-15 06:42N 46°38' W 124°47'0 2.1
2018-May-15 06:30N 46°38' W 124°46'2 2.8
2018-May-15 05:55N 46°38' W 124°44'1 2.2
2018-May-15 05:31N 46°39' W 124°44'0 0.9
2018-May-15 05:00N 46°39' W 124°44'2 2.3
2018-May-15 04:11N 46°39' W 124°47'1 2.1
2018-May-15 03:47N 46°40' W 124°48'1 2.3
2018-May-15 03:29N 46°40' W 124°48'1 2.3
2018-May-15 02:56N 46°42' W 124°49'1 2.4
2018-May-15 02:30N 46°43' W 124°49'1 2.6
2018-May-15 02:00N 46°43' W 124°51'1 1.5
2018-May-15 01:30N 46°43' W 124°50'1 2.3
2018-May-15 01:00N 46°42' W 124°49'1 2.2
2018-May-15 00:31N 46°41' W 124°49'1 2.2
2018-May-15 00:01N 46°40' W 124°48'2 2.1
2018-May-14 23:06N 46°39' W 124°46'0 2.3
2018-May-14 23:01N 46°39' W 124°46'1 2.6
2018-May-14 22:28N 46°38' W 124°44'1 1.0
2018-May-14 21:40N 46°39' W 124°45'0 2.2
2018-May-14 21:30N 46°39' W 124°45'1 2.3
2018-May-14 21:01N 46°39' W 124°47'1 2.1
2018-May-14 20:24N 46°40' W 124°48'1 2.3
2018-May-14 19:49N 46°41' W 124°49'1 2.3
2018-May-14 19:31N 46°42' W 124°49'1 2.3
2018-May-14 19:00N 46°43' W 124°50'1 2.8
2018-May-14 18:30N 46°44' W 124°51'1 1.5
2018-May-14 17:54N 46°43' W 124°51'1 2.4
2018-May-14 17:30N 46°42' W 124°50'1 2.3
2018-May-14 17:01N 46°41' W 124°49'1 2.4
2018-May-14 16:30N 46°40' W 124°49'1 2.4
2018-May-14 15:56N 46°39' W 124°48'1 2.3
2018-May-14 15:29N 46°39' W 124°46'1 2.2
2018-May-14 14:55N 46°38' W 124°45'1 1.3
2018-May-14 14:31N 46°38' W 124°44'1 1.3
2018-May-14 14:00N 46°38' W 124°45'1 2.2
2018-May-14 13:26N 46°38' W 124°47'1 2.2
2018-May-14 13:01N 46°39' W 124°48'1 2.2
2018-May-14 12:31N 46°40' W 124°49'1 2.3
2018-May-14 12:01N 46°41' W 124°49'1 2.2
2018-May-14 11:30N 46°42' W 124°50'1 2.3
2018-May-14 11:00N 46°43' W 124°51'1 2.4
2018-May-14 10:30N 46°44' W 124°52'1 2.3
2018-May-14 10:01N 46°45' W 124°52'1 2.2
2018-May-14 09:30N 46°46' W 124°53'1 2.4
2018-May-14 09:01N 46°47' W 124°53'1 2.3
2018-May-14 08:31N 46°48' W 124°54'1 2.3
2018-May-14 08:00N 46°49' W 124°55'1 3.0
2018-May-14 07:31N 46°50' W 124°56'1 1.1
2018-May-14 06:56N 46°50' W 124°55'1 1.7
2018-May-14 06:30N 46°49' W 124°55'1 2.2
2018-May-14 06:01N 46°49' W 124°54'1 2.4
2018-May-14 05:31N 46°48' W 124°53'1 2.3
2018-May-14 04:59N 46°47' W 124°52'1 2.5
2018-May-14 04:30N 46°45' W 124°51'0 0.4
2018-May-14 03:59N 46°45' W 124°52'1 2.3
2018-May-14 03:31N 46°46' W 124°52'2 2.3
2018-May-14 02:38N 46°48' W 124°54'0 2.1
2018-May-14 02:30N 46°48' W 124°54'1 2.3
2018-May-14 02:01N 46°49' W 124°55'1 1.9
2018-May-14 01:29N 46°50' W 124°56'0 0.9
2018-May-14 00:59N 46°50' W 124°56'2 4.4
2018-May-14 00:30N 46°52' W 124°55'20 2.2
2018-May-13 15:18N 47°11' W 124°49'1 2.5
2018-May-13 14:59N 47°10' W 124°49'1 2.5
2018-May-13 14:30N 47°09' W 124°50'1 2.8
2018-May-13 14:00N 47°08' W 124°50'4 7.1
2018-May-13 13:30N 47°04' W 124°49'5 7.4
2018-May-13 12:52N 46°60' W 124°46'3 7.5
2018-May-13 12:29N 46°57' W 124°45'2 4.5
2018-May-13 12:00N 46°55' W 124°45'1 2.3
2018-May-13 11:30N 46°54' W 124°45'1 2.5
2018-May-13 11:00N 46°53' W 124°45'1 2.5
2018-May-13 10:30N 46°51' W 124°44'1 2.6
2018-May-13 10:00N 46°50' W 124°44'1 2.5
2018-May-13 09:30N 46°49' W 124°44'  
Track history (hours):
 
Tides and Currents Weather Stations Pressure Air Temp Water Temp Dewpoint Dewpoint Depression Visibility Wind Speed Wind Dir Waves Ship Positions

Iron Lady

Owner: IRON LADY INC, SOUTH BEND, WA. More information available from US FCC via Universal Licensing System and Coast Guard Vessel Documentation Center.

Last reported at 2018-May-23 09:30 UTC. Time now 2018-May-23 09:34 UTC.
Position N 46°10' W 123°55'.

Type: Fishing. MMSI: 367037240.

Date/timePositionNaut miles runAvg speedWind from/ knotsBaromVisibWave heightAir tempDewpointWater temp
2018-May-23 09:30N 46°10' W 123°55'0 0.0
2018-May-23 09:00N 46°10' W 123°55'0 0.0
2018-May-23 08:30N 46°10' W 123°55'0 0.0
2018-May-23 08:00N 46°10' W 123°55'0 0.0
2018-May-23 07:30N 46°10' W 123°55'0 0.0
2018-May-23 06:59N 46°10' W 123°55'0 0.0
2018-May-23 06:30N 46°10' W 123°55'0 0.0
2018-May-23 06:00N 46°10' W 123°55'0 0.0
2018-May-23 05:21N 46°10' W 123°55'0 0.0
2018-May-23 04:59N 46°10' W 123°55'0 0.0
2018-May-23 04:29N 46°10' W 123°55'0 0.0
2018-May-23 04:00N 46°10' W 123°55'0 0.0
2018-May-23 03:30N 46°10' W 123°55'0 0.0
2018-May-23 02:54N 46°10' W 123°55'0 0.0
2018-May-23 02:30N 46°10' W 123°55'4 7.1
2018-May-23 02:00N 46°13' W 123°58'4 8.6
2018-May-23 01:30N 46°15' W 124°03'4 8.1
2018-May-23 01:00N 46°18' W 124°07'5 9.0
2018-May-23 00:30N 46°22' W 124°11'6 9.0
2018-May-22 23:47N 46°28' W 124°14'2 8.9
2018-May-22 23:30N 46°30' W 124°15'5 8.9
2018-May-22 23:00N 46°34' W 124°18'4 9.1
2018-May-22 22:30N 46°38' W 124°20'5 9.2
2018-May-22 22:00N 46°43' W 124°22'4 9.0
2018-May-22 21:30N 46°47' W 124°25'5 9.1
2018-May-22 21:00N 46°51' W 124°27'5 9.1
2018-May-22 20:29N 46°56' W 124°30'4 8.8
2018-May-22 20:00N 46°60' W 124°32'19 1.0
2018-May-22 00:26N 46°51' W 124°56'1 1.4
2018-May-21 23:24N 46°49' W 124°56'1 2.4
2018-May-21 22:51N 46°48' W 124°55'1 2.4
2018-May-21 22:30N 46°47' W 124°54'1 2.4
2018-May-21 22:00N 46°46' W 124°53'1 2.3
2018-May-21 21:30N 46°45' W 124°53'1 2.3
2018-May-21 21:00N 46°44' W 124°52'1 2.4
2018-May-21 20:30N 46°43' W 124°51'1 2.3
2018-May-21 19:57N 46°42' W 124°50'1 2.3
2018-May-21 19:30N 46°41' W 124°50'1 2.3
2018-May-21 19:00N 46°40' W 124°49'1 2.3
2018-May-21 18:30N 46°39' W 124°49'1 2.4
2018-May-21 17:57N 46°38' W 124°47'2 2.5
2018-May-21 17:06N 46°38' W 124°44'0 1.8
2018-May-21 17:00N 46°38' W 124°44'1 1.1
2018-May-21 16:29N 46°38' W 124°45'1 2.2
2018-May-21 16:00N 46°38' W 124°47'2 2.2
2018-May-21 15:14N 46°39' W 124°49'1 2.3
2018-May-21 15:00N 46°40' W 124°49'1 2.3
2018-May-21 14:30N 46°41' W 124°49'1 2.3
2018-May-21 14:00N 46°42' W 124°50'1 2.2
2018-May-21 13:30N 46°43' W 124°51'1 2.3
2018-May-21 12:58N 46°44' W 124°52'1 2.2
2018-May-21 12:23N 46°45' W 124°52'1 2.3
2018-May-21 11:47N 46°46' W 124°53'1 2.2
2018-May-21 11:25N 46°47' W 124°53'1 2.3
2018-May-21 10:59N 46°48' W 124°54'1 0.2
2018-May-21 08:12N 46°48' W 124°53'0 2.4
2018-May-21 08:00N 46°48' W 124°53'2 2.3
2018-May-21 07:19N 46°46' W 124°52'1 2.3
2018-May-21 06:59N 46°46' W 124°52'1 2.3
2018-May-21 06:30N 46°45' W 124°51'1 2.2
2018-May-21 06:00N 46°44' W 124°50'1 2.2
2018-May-21 05:30N 46°43' W 124°50'1 2.2
2018-May-21 04:59N 46°42' W 124°49'1 2.2
2018-May-21 04:30N 46°41' W 124°48'1 2.3
2018-May-21 03:57N 46°40' W 124°48'3 2.4
2018-May-21 02:47N 46°38' W 124°44'0 1.1
2018-May-21 02:30N 46°38' W 124°44'1 1.7
2018-May-21 01:42N 46°38' W 124°46'0 2.3
2018-May-21 01:29N 46°39' W 124°47'1 2.5
2018-May-21 01:00N 46°39' W 124°48'1 2.4
2018-May-21 00:30N 46°40' W 124°49'1 2.2
2018-May-21 00:00N 46°41' W 124°49'1 2.3
2018-May-20 23:30N 46°42' W 124°50'2 2.4
2018-May-20 22:52N 46°44' W 124°51'1 2.4
2018-May-20 22:30N 46°45' W 124°51'1 2.4
2018-May-20 21:59N 46°46' W 124°52'1 2.4
2018-May-20 21:30N 46°47' W 124°53'1 2.4
2018-May-20 21:00N 46°48' W 124°54'1 2.3
2018-May-20 20:27N 46°49' W 124°55'2 1.1
2018-May-20 18:44N 46°50' W 124°57'1 2.3
2018-May-20 18:30N 46°49' W 124°57'2 2.3
2018-May-20 17:27N 46°47' W 124°55'1 2.2
2018-May-20 16:50N 46°46' W 124°54'1 2.2
2018-May-20 16:11N 46°45' W 124°53'0 2.1
2018-May-20 16:00N 46°44' W 124°53'1 2.2
2018-May-20 15:29N 46°43' W 124°52'2 2.2
2018-May-20 14:39N 46°42' W 124°51'0 2.1
2018-May-20 14:30N 46°41' W 124°51'1 2.2
2018-May-20 14:00N 46°40' W 124°51'1 2.2
2018-May-20 13:30N 46°39' W 124°51'1 2.2
2018-May-20 13:00N 46°38' W 124°51'1 2.2
2018-May-20 12:30N 46°37' W 124°50'1 2.2
2018-May-20 12:00N 46°36' W 124°49'3 5.1
2018-May-20 11:30N 46°34' W 124°47'3 6.9
2018-May-20 11:00N 46°32' W 124°43'2 4.8
2018-May-20 10:30N 46°30' W 124°41'1 1.0
2018-May-20 10:00N 46°31' W 124°40'2 0.6
2018-May-20 06:59N 46°32' W 124°38'1 2.4
2018-May-20 06:30N 46°31' W 124°40'1 2.8
2018-May-20 06:00N 46°30' W 124°40'7 8.5
2018-May-20 05:11N 46°26' W 124°32'1 7.7
2018-May-20 05:00N 46°25' W 124°30'4 7.4
2018-May-20 04:30N 46°24' W 124°25'5 6.6
2018-May-20 03:48N 46°21' W 124°20'2 6.2
2018-May-20 03:31N 46°20' W 124°17'3 6.4
2018-May-20 03:00N 46°18' W 124°13'3 7.0
2018-May-20 02:31N 46°17' W 124°09'4 8.9
2018-May-20 02:00N 46°15' W 124°03'510.2
2018-May-20 01:31N 46°13' W 123°57'3 5.8
2018-May-20 01:01N 46°10' W 123°55'0 0.0
2018-May-20 00:30N 46°10' W 123°55'0 0.0
2018-May-20 00:00N 46°10' W 123°55'0 0.0
2018-May-19 23:30N 46°10' W 123°55'0 0.0
2018-May-19 23:00N 46°10' W 123°55'0 0.0
2018-May-19 22:31N 46°10' W 123°55'0 0.0
2018-May-19 22:00N 46°10' W 123°55'0 0.0
2018-May-19 21:30N 46°10' W 123°55'0 0.0
2018-May-19 21:00N 46°10' W 123°55'0 0.0
2018-May-19 20:30N 46°10' W 123°55'0 0.0
2018-May-19 20:01N 46°10' W 123°55'0 0.0
2018-May-19 19:30N 46°10' W 123°55'0 0.0
2018-May-19 18:50N 46°10' W 123°55'0 0.2
2018-May-19 18:30N 46°10' W 123°55'0 0.0
2018-May-19 18:00N 46°10' W 123°55'0 0.2
2018-May-19 17:30N 46°10' W 123°55'0 0.0
2018-May-19 17:00N 46°10' W 123°55'0 0.0
2018-May-19 16:30N 46°10' W 123°55'0 0.0
2018-May-19 16:00N 46°10' W 123°55'0 0.0
2018-May-19 15:24N 46°10' W 123°55'0 0.0
2018-May-19 15:00N 46°10' W 123°55'0 0.0
2018-May-19 14:30N 46°10' W 123°55'0 0.0
2018-May-19 14:01N 46°10' W 123°55'0 0.0
2018-May-19 13:30N 46°10' W 123°55'0 0.0
2018-May-19 12:59N 46°10' W 123°55'0 0.0
2018-May-19 12:30N 46°10' W 123°55'0 0.0
2018-May-19 12:00N 46°10' W 123°55'0 0.0
2018-May-19 11:31N 46°10' W 123°55'0 0.0
2018-May-19 11:00N 46°10' W 123°55'0 0.0
2018-May-19 10:30N 46°10' W 123°55'0 0.0
2018-May-19 10:00N 46°10' W 123°55'0 0.0
2018-May-19 09:29N 46°10' W 123°55'0 0.0
2018-May-19 09:00N 46°10' W 123°55'0 0.0
2018-May-19 08:30N 46°10' W 123°55'0 0.0
2018-May-19 08:00N 46°10' W 123°55'0 0.0
2018-May-19 07:30N 46°10' W 123°55'0 0.0
2018-May-19 06:49N 46°10' W 123°55'0 0.0
2018-May-19 06:30N 46°10' W 123°55'0 0.0
2018-May-19 06:00N 46°10' W 123°55'0 0.0
2018-May-19 05:30N 46°10' W 123°55'0 0.0
2018-May-19 05:00N 46°10' W 123°55'0 0.0
2018-May-19 04:30N 46°10' W 123°55'0 0.0
2018-May-19 03:44N 46°10' W 123°55'0 0.0
2018-May-19 03:30N 46°10' W 123°55'0 0.0
2018-May-19 03:00N 46°10' W 123°55'0 0.0
2018-May-19 02:31N 46°10' W 123°55'0 0.0
2018-May-19 01:51N 46°10' W 123°55'0 0.0
2018-May-19 01:12N 46°10' W 123°55'0 0.0
2018-May-19 01:00N 46°10' W 123°55'0 0.0
2018-May-17 20:13N 46°10' W 123°55'0 0.0
2018-May-17 20:00N 46°10' W 123°55'0 0.0
2018-May-17 19:30N 46°10' W 123°55'0 0.0
2018-May-17 19:00N 46°10' W 123°55'0 0.0
2018-May-17 18:30N 46°10' W 123°55'0 0.0
2018-May-17 18:00N 46°10' W 123°55'0 0.0
2018-May-17 17:30N 46°10' W 123°55'0 0.0
2018-May-17 17:00N 46°10' W 123°55'0 0.0
2018-May-17 16:30N 46°10' W 123°55'0 0.0
2018-May-17 16:01N 46°10' W 123°55'0 0.0
2018-May-17 15:28N 46°10' W 123°55'0 0.0
2018-May-17 15:00N 46°10' W 123°55'0 0.0
2018-May-17 14:30N 46°10' W 123°55'0 0.0
2018-May-17 14:00N 46°10' W 123°55'0 0.0
2018-May-17 13:28N 46°10' W 123°55'0 0.0
2018-May-17 13:00N 46°10' W 123°55'0 0.0
2018-May-17 12:30N 46°10' W 123°55'0 0.0
2018-May-17 12:00N 46°10' W 123°55'0 0.0
2018-May-17 11:29N 46°10' W 123°55'0 0.0
2018-May-17 11:00N 46°10' W 123°55'0 0.0
2018-May-17 10:30N 46°10' W 123°55'0 0.0
2018-May-17 10:00N 46°10' W 123°55'0 0.0
2018-May-17 09:30N 46°10' W 123°55'0 0.0
2018-May-17 09:00N 46°10' W 123°55'0 0.0
2018-May-17 08:30N 46°10' W 123°55'0 0.0
2018-May-17 08:00N 46°10' W 123°55'0 0.0
2018-May-17 07:22N 46°10' W 123°55'0 0.0
2018-May-17 07:00N 46°10' W 123°55'0 0.0
2018-May-17 06:30N 46°10' W 123°55'0 0.0
2018-May-17 06:00N 46°10' W 123°55'0 0.0
2018-May-17 05:21N 46°10' W 123°55'0 0.0
2018-May-17 05:01N 46°10' W 123°55'0 0.0
2018-May-17 04:31N 46°10' W 123°55'0 0.0
2018-May-17 04:01N 46°10' W 123°55'0 0.0
2018-May-17 03:30N 46°10' W 123°55'0 0.0
2018-May-17 03:01N 46°10' W 123°55'0 0.0
2018-May-17 02:16N 46°10' W 123°55'0 0.0
2018-May-17 02:01N 46°10' W 123°55'0 0.0
2018-May-17 01:30N 46°10' W 123°55'0 0.0
2018-May-17 01:01N 46°10' W 123°55'0 0.0
2018-May-16 23:57N 46°10' W 123°55'0 0.0
2018-May-16 23:31N 46°10' W 123°55'0 0.0
2018-May-16 23:01N 46°10' W 123°55'0 0.0
2018-May-16 22:31N 46°10' W 123°55'0 0.0
2018-May-16 22:00N 46°10' W 123°55'0 0.0
2018-May-16 21:30N 46°10' W 123°55'0 0.0
2018-May-16 21:01N 46°10' W 123°55'0 0.0
2018-May-16 20:31N 46°10' W 123°55'0 0.0
2018-May-16 20:00N 46°10' W 123°55'0 0.0
2018-May-16 19:30N 46°10' W 123°55'0 0.2
2018-May-16 19:01N 46°10' W 123°55'0 0.0
2018-May-16 18:31N 46°10' W 123°55'0 0.0
2018-May-16 18:01N 46°10' W 123°55'0 0.0
2018-May-16 17:30N 46°10' W 123°55'0 0.0
2018-May-16 17:01N 46°10' W 123°55'0 0.0
2018-May-16 16:31N 46°10' W 123°55'0 0.0
2018-May-16 16:01N 46°10' W 123°55'0 0.0
2018-May-16 15:31N 46°10' W 123°55'0 0.0
2018-May-16 15:01N 46°10' W 123°55'0 0.0
2018-May-16 14:31N 46°10' W 123°55'0 0.0
2018-May-16 14:01N 46°10' W 123°55'0 0.0
2018-May-16 13:30N 46°10' W 123°55'0 0.0
2018-May-16 13:01N 46°10' W 123°55'0 0.2
2018-May-16 12:31N 46°10' W 123°55'0 0.0
2018-May-16 12:01N 46°10' W 123°55'0 0.0
2018-May-16 11:31N 46°10' W 123°55'0 0.0
2018-May-16 11:01N 46°10' W 123°55'0 0.0
2018-May-16 10:31N 46°10' W 123°55'0 0.0
2018-May-16 10:01N 46°10' W 123°55'0 0.0
2018-May-16 09:31N 46°10' W 123°55'0 0.0
2018-May-16 09:01N 46°10' W 123°55'0 0.0
2018-May-16 08:31N 46°10' W 123°55'0 0.0
2018-May-16 08:01N 46°10' W 123°55'0 0.0
2018-May-16 07:31N 46°10' W 123°55'0 0.0
2018-May-16 07:01N 46°10' W 123°55'0 0.0
2018-May-16 06:31N 46°10' W 123°55'0 0.0
2018-May-16 06:01N 46°10' W 123°55'0 0.0
2018-May-16 05:29N 46°10' W 123°55'0 0.0
2018-May-16 05:01N 46°10' W 123°55'0 0.0
2018-May-16 04:31N 46°10' W 123°55'1 1.2
2018-May-16 04:00N 46°11' W 123°55'3 6.6
2018-May-16 03:30N 46°13' W 123°58'3 5.8
2018-May-16 03:01N 46°15' W 124°01'2 4.5
2018-May-16 02:31N 46°15' W 124°04'2 3.9
2018-May-16 02:00N 46°15' W 124°07'2 4.9
2018-May-16 01:30N 46°17' W 124°10'4 7.6
2018-May-16 01:01N 46°19' W 124°14'3 6.8
2018-May-16 00:31N 46°22' W 124°17'4 7.9
2018-May-16 00:01N 46°24' W 124°22'6 8.3
2018-May-15 23:17N 46°28' W 124°28'2 8.0
2018-May-15 23:01N 46°29' W 124°31'4 8.2
2018-May-15 22:31N 46°32' W 124°35'4 7.8
2018-May-15 21:56N 46°35' W 124°40'4 6.2
2018-May-15 21:16N 46°38' W 124°45'0 0.2
2018-May-15 21:00N 46°38' W 124°45'1 2.3
2018-May-15 20:31N 46°38' W 124°46'1 2.2
2018-May-15 20:00N 46°38' W 124°48'1 2.0
2018-May-15 19:29N 46°38' W 124°49'1 1.9
2018-May-15 18:58N 46°39' W 124°50'1 2.1
2018-May-15 18:28N 46°40' W 124°50'1 2.2
2018-May-15 17:48N 46°42' W 124°51'1 2.3
2018-May-15 17:30N 46°42' W 124°51'1 2.2
2018-May-15 17:00N 46°43' W 124°52'2 2.2
2018-May-15 16:12N 46°45' W 124°53'1 2.3
2018-May-15 15:59N 46°45' W 124°53'1 2.2
2018-May-15 15:30N 46°46' W 124°54'1 2.3
2018-May-15 14:59N 46°48' W 124°54'3 2.6
2018-May-15 13:47N 46°50' W 124°57'0 1.3
2018-May-15 13:27N 46°51' W 124°56'2 1.4
2018-May-15 12:17N 46°49' W 124°56'1 2.1
2018-May-15 12:00N 46°49' W 124°55'1 2.2
2018-May-15 11:28N 46°48' W 124°54'1 2.2
2018-May-15 11:00N 46°47' W 124°53'1 2.2
2018-May-15 10:30N 46°46' W 124°53'1 2.2
2018-May-15 10:00N 46°45' W 124°53'1 2.2
2018-May-15 09:30N 46°44' W 124°52'1 2.3
2018-May-15 09:00N 46°43' W 124°51'1 2.3
2018-May-15 08:30N 46°42' W 124°50'1 2.3
2018-May-15 08:00N 46°40' W 124°50'1 2.6
2018-May-15 07:30N 46°39' W 124°49'2 2.3
2018-May-15 06:42N 46°38' W 124°47'0 2.1
2018-May-15 06:30N 46°38' W 124°46'2 2.8
2018-May-15 05:55N 46°38' W 124°44'1 2.2
2018-May-15 05:31N 46°39' W 124°44'0 0.9
2018-May-15 05:00N 46°39' W 124°44'2 2.3
2018-May-15 04:11N 46°39' W 124°47'1 2.1
2018-May-15 03:47N 46°40' W 124°48'1 2.3
2018-May-15 03:29N 46°40' W 124°48'1 2.3
2018-May-15 02:56N 46°42' W 124°49'1 2.4
2018-May-15 02:30N 46°43' W 124°49'1 2.6
2018-May-15 02:00N 46°43' W 124°51'1 1.5
2018-May-15 01:30N 46°43' W 124°50'1 2.3
2018-May-15 01:00N 46°42' W 124°49'1 2.2
2018-May-15 00:31N 46°41' W 124°49'1 2.2
2018-May-15 00:01N 46°40' W 124°48'2 2.1
2018-May-14 23:06N 46°39' W 124°46'0 2.3
2018-May-14 23:01N 46°39' W 124°46'1 2.6
2018-May-14 22:28N 46°38' W 124°44'1 1.0
2018-May-14 21:40N 46°39' W 124°45'0 2.2
2018-May-14 21:30N 46°39' W 124°45'1 2.3
2018-May-14 21:01N 46°39' W 124°47'1 2.1
2018-May-14 20:24N 46°40' W 124°48'1 2.3
2018-May-14 19:49N 46°41' W 124°49'1 2.3
2018-May-14 19:31N 46°42' W 124°49'1 2.3
2018-May-14 19:00N 46°43' W 124°50'1 2.8
2018-May-14 18:30N 46°44' W 124°51'1 1.5
2018-May-14 17:54N 46°43' W 124°51'1 2.4
2018-May-14 17:30N 46°42' W 124°50'1 2.3
2018-May-14 17:01N 46°41' W 124°49'1 2.4
2018-May-14 16:30N 46°40' W 124°49'1 2.4
2018-May-14 15:56N 46°39' W 124°48'1 2.3
2018-May-14 15:29N 46°39' W 124°46'1 2.2
2018-May-14 14:55N 46°38' W 124°45'1 1.3
2018-May-14 14:31N 46°38' W 124°44'1 1.3
2018-May-14 14:00N 46°38' W 124°45'1 2.2
2018-May-14 13:26N 46°38' W 124°47'1 2.2
2018-May-14 13:01N 46°39' W 124°48'1 2.2
2018-May-14 12:31N 46°40' W 124°49'1 2.3
2018-May-14 12:01N 46°41' W 124°49'1 2.2
2018-May-14 11:30N 46°42' W 124°50'1 2.3
2018-May-14 11:00N 46°43' W 124°51'1 2.4
2018-May-14 10:30N 46°44' W 124°52'1 2.3
2018-May-14 10:01N 46°45' W 124°52'1 2.2
2018-May-14 09:30N 46°46' W 124°53'1 2.4
2018-May-14 09:01N 46°47' W 124°53'1 2.3
2018-May-14 08:31N 46°48' W 124°54'1 2.3
2018-May-14 08:00N 46°49' W 124°55'1 3.0
2018-May-14 07:31N 46°50' W 124°56'1 1.1
2018-May-14 06:56N 46°50' W 124°55'1 1.7
2018-May-14 06:30N 46°49' W 124°55'1 2.2
2018-May-14 06:01N 46°49' W 124°54'1 2.4
2018-May-14 05:31N 46°48' W 124°53'1 2.3
2018-May-14 04:59N 46°47' W 124°52'1 2.5
2018-May-14 04:30N 46°45' W 124°51'0 0.4
2018-May-14 03:59N 46°45' W 124°52'1 2.3
2018-May-14 03:31N 46°46' W 124°52'2 2.3
2018-May-14 02:38N 46°48' W 124°54'0 2.1
2018-May-14 02:30N 46°48' W 124°54'1 2.3
2018-May-14 02:01N 46°49' W 124°55'1 1.9
2018-May-14 01:29N 46°50' W 124°56'0 0.9
2018-May-14 00:59N 46°50' W 124°56'2 4.4
2018-May-14 00:30N 46°52' W 124°55'20 2.2
2018-May-13 15:18N 47°11' W 124°49'1 2.5
2018-May-13 14:59N 47°10' W 124°49'1 2.5
2018-May-13 14:30N 47°09' W 124°50'1 2.8
2018-May-13 14:00N 47°08' W 124°50'4 7.1
2018-May-13 13:30N 47°04' W 124°49'5 7.4
2018-May-13 12:52N 46°60' W 124°46'3 7.5
2018-May-13 12:29N 46°57' W 124°45'2 4.5
2018-May-13 12:00N 46°55' W 124°45'1 2.3
2018-May-13 11:30N 46°54' W 124°45'1 2.5
2018-May-13 11:00N 46°53' W 124°45'1 2.5
2018-May-13 10:30N 46°51' W 124°44'1 2.6
2018-May-13 10:00N 46°50' W 124°44'1 2.5
2018-May-13 09:30N 46°49' W 124°44'  

Dump ship's entire track history